createdAt,value
2022-10-13T00:02:19.673Z,31.88
2022-10-13T00:04:52.802Z,35.80
2022-10-13T00:07:25.366Z,37.15
2022-10-13T00:09:58.248Z,32.03
2022-10-13T00:12:31.687Z,35.50
2022-10-13T00:15:05.504Z,32.40
2022-10-13T00:17:38.236Z,39.53
2022-10-13T00:20:11.609Z,39.67
2022-10-13T00:22:44.146Z,31.52
2022-10-13T00:25:17.083Z,37.10
2022-10-13T00:27:52.257Z,37.85
2022-10-13T00:30:26.563Z,33.88
2022-10-13T00:32:58.983Z,31.73
2022-10-13T00:35:31.811Z,40.45
2022-10-13T00:38:04.355Z,39.63
2022-10-13T00:40:50.403Z,34.13
2022-10-13T00:43:24.230Z,29.13
2022-10-13T00:45:58.242Z,34.17
2022-10-13T00:48:31.359Z,33.08
2022-10-13T00:51:05.191Z,32.08
2022-10-13T00:53:39.074Z,32.40
2022-10-13T00:56:14.842Z,31.20
2022-10-13T00:58:49.716Z,30.80
2022-10-13T01:01:23.278Z,30.55
2022-10-13T01:03:56.066Z,28.50
2022-10-13T01:06:28.919Z,28.40
2022-10-13T01:09:01.651Z,34.30
2022-10-13T01:11:41.705Z,35.65
2022-10-13T01:14:20.177Z,31.05
2022-10-13T01:17:01.671Z,25.83
2022-10-13T01:19:43.179Z,34.55
2022-10-13T01:22:25.397Z,35.72
2022-10-13T01:25:18.191Z,36.72
2022-10-13T01:28:05.814Z,44.58
2022-10-13T01:30:42.726Z,35.15
2022-10-13T01:33:18.440Z,33.63
2022-10-13T01:36:10.228Z,36.28
2022-10-13T01:38:57.513Z,28.63
2022-10-13T01:41:34.859Z,31.80
2022-10-13T01:44:32.459Z,30.63
2022-10-13T01:47:06.453Z,33.80
2022-10-13T01:49:39.576Z,30.55
2022-10-13T01:52:15.440Z,30.58
2022-10-13T01:54:52.062Z,29.70
2022-10-13T01:57:43.482Z,29.50
2022-10-13T02:00:18.640Z,28.23
2022-10-13T02:03:13.611Z,30.92
2022-10-13T02:06:05.326Z,25.08
2022-10-13T02:08:48.507Z,32.23
2022-10-13T02:11:23.740Z,31.27
2022-10-13T02:14:13.115Z,33.30
2022-10-13T02:16:47.469Z,29.70
2022-10-13T02:19:20.512Z,30.55
2022-10-13T02:21:53.773Z,27.83
2022-10-13T02:24:26.736Z,27.27
2022-10-13T02:26:59.629Z,30.85
2022-10-13T02:29:32.495Z,33.83
2022-10-13T02:32:05.340Z,43.00
2022-10-13T02:34:37.821Z,44.05
2022-10-13T02:37:11.578Z,37.08
2022-10-13T02:39:44.301Z,31.73
2022-10-13T02:42:17.626Z,29.13
2022-10-13T02:44:50.380Z,35.85
2022-10-13T02:47:23.284Z,32.75
2022-10-13T02:49:57.062Z,34.80
2022-10-13T02:52:30.168Z,36.05
2022-10-13T02:55:02.702Z,29.42
2022-10-13T02:57:35.818Z,38.75
2022-10-13T03:00:08.936Z,40.97
2022-10-13T03:02:42.169Z,43.27
2022-10-13T03:05:14.833Z,48.88
2022-10-13T03:07:47.613Z,49.47
2022-10-13T03:10:21.778Z,38.85
2022-10-13T03:12:57.033Z,48.47
2022-10-13T03:15:29.709Z,44.28
2022-10-13T03:18:05.021Z,44.58
2022-10-13T03:20:37.717Z,49.92
2022-10-13T03:23:11.776Z,51.53
2022-10-13T03:25:44.437Z,50.53
2022-10-13T03:28:17.580Z,43.42
2022-10-13T03:30:51.568Z,48.33
2022-10-13T03:33:24.392Z,35.03
2022-10-13T03:36:02.636Z,32.78
2022-10-13T03:38:35.944Z,36.30
2022-10-13T03:41:09.922Z,32.90
2022-10-13T03:43:43.596Z,37.10
2022-10-13T03:46:17.708Z,33.90
2022-10-13T03:48:51.364Z,30.00
2022-10-13T03:51:24.170Z,33.47
2022-10-13T03:53:57.056Z,30.42
2022-10-13T03:56:29.544Z,33.72
2022-10-13T03:59:05.364Z,38.00
2022-10-13T04:01:37.961Z,37.93
2022-10-13T04:04:11.558Z,31.40
2022-10-13T04:06:47.403Z,34.13
2022-10-13T04:09:20.277Z,46.72
2022-10-13T04:11:53.072Z,32.67
2022-10-13T04:14:25.900Z,28.67
2022-10-13T04:17:03.549Z,33.15
2022-10-13T04:19:36.547Z,29.98
2022-10-13T04:22:11.015Z,31.63
2022-10-13T04:24:43.760Z,31.23
2022-10-13T04:27:17.451Z,31.80
2022-10-13T04:29:50.441Z,31.08
2022-10-13T04:32:23.066Z,39.00
2022-10-13T04:34:55.926Z,37.42
2022-10-13T04:37:28.323Z,36.97
2022-10-13T04:40:01.144Z,35.90
2022-10-13T04:42:34.533Z,33.25
2022-10-13T04:45:07.724Z,32.00
2022-10-13T04:47:40.318Z,36.60
2022-10-13T04:50:13.633Z,38.13
2022-10-13T04:52:46.114Z,40.15
2022-10-13T04:55:19.117Z,40.28
2022-10-13T04:57:51.550Z,44.13
2022-10-13T05:00:24.513Z,38.53
2022-10-13T05:02:57.186Z,42.88
2022-10-13T05:05:30.011Z,37.92
2022-10-13T05:08:02.625Z,41.03
2022-10-13T05:10:35.932Z,37.67
2022-10-13T05:13:08.455Z,41.10
2022-10-13T05:15:41.695Z,44.17
2022-10-13T05:18:14.157Z,38.10
2022-10-13T05:20:47.591Z,38.70
2022-10-13T05:23:20.103Z,35.45
2022-10-13T05:25:52.935Z,33.75
2022-10-13T05:28:27.444Z,35.15
2022-10-13T05:31:13.710Z,36.75
2022-10-13T05:33:47.460Z,38.00
2022-10-13T05:36:27.827Z,40.78
2022-10-13T05:39:01.954Z,35.88
2022-10-13T05:41:35.221Z,36.03
2022-10-13T05:44:11.363Z,38.93
2022-10-13T05:46:50.104Z,35.05
2022-10-13T05:49:22.706Z,36.60
2022-10-13T05:52:01.901Z,39.30
2022-10-13T05:54:36.858Z,40.37
2022-10-13T05:57:12.377Z,40.92
2022-10-13T05:59:49.021Z,40.93
2022-10-13T06:02:23.323Z,43.92
2022-10-13T06:04:57.192Z,38.30
2022-10-13T06:07:30.810Z,39.80
2022-10-13T06:10:03.380Z,39.78
2022-10-13T06:12:36.221Z,42.10
2022-10-13T06:15:09.032Z,42.38
2022-10-13T06:17:41.876Z,41.85
2022-10-13T06:20:14.570Z,42.40
2022-10-13T06:22:48.853Z,40.15
2022-10-13T06:25:21.642Z,48.72
2022-10-13T06:27:54.622Z,68.20
2022-10-13T06:30:27.735Z,52.22
2022-10-13T06:33:00.791Z,61.03
2022-10-13T06:35:33.495Z,48.25
2022-10-13T06:38:06.218Z,45.08
2022-10-13T06:40:38.907Z,44.65
2022-10-13T06:43:11.809Z,43.35
2022-10-13T06:45:47.154Z,47.90
2022-10-13T06:48:19.935Z,44.35
2022-10-13T06:50:52.549Z,44.33
2022-10-13T06:53:25.422Z,47.70
2022-10-13T06:56:01.770Z,48.83
2022-10-13T06:58:35.692Z,50.75
2022-10-13T07:01:08.371Z,48.40
2022-10-13T07:03:41.443Z,50.13
2022-10-13T07:06:13.991Z,43.50
2022-10-13T07:08:47.031Z,41.77
2022-10-13T07:11:20.873Z,45.25
2022-10-13T07:13:57.277Z,46.67
2022-10-13T07:16:29.975Z,42.17
2022-10-13T07:19:03.244Z,46.60
2022-10-13T07:21:36.021Z,45.53
2022-10-13T07:24:11.766Z,44.15
2022-10-13T07:26:46.979Z,45.25
2022-10-13T07:29:19.986Z,44.78
2022-10-13T07:31:52.489Z,52.10
2022-10-13T07:34:25.418Z,48.10
2022-10-13T07:36:58.114Z,44.53
2022-10-13T07:39:31.006Z,44.50
2022-10-13T07:42:03.543Z,42.30
2022-10-13T07:44:36.531Z,47.90
2022-10-13T07:47:09.088Z,44.13
2022-10-13T07:49:42.277Z,47.60
2022-10-13T07:52:14.836Z,49.67
2022-10-13T07:54:47.698Z,41.72
2022-10-13T07:57:20.277Z,47.70
2022-10-13T07:59:53.498Z,50.20
2022-10-13T08:02:26.790Z,48.20
2022-10-13T08:04:59.617Z,42.13
2022-10-13T08:07:32.154Z,44.45
2022-10-13T08:10:05.520Z,43.53
2022-10-13T08:12:38.168Z,48.77
2022-10-13T08:15:12.775Z,39.22
2022-10-13T08:17:45.392Z,36.80
2022-10-13T08:20:18.285Z,47.55
2022-10-13T08:22:51.058Z,39.90
2022-10-13T08:25:24.064Z,39.05
2022-10-13T08:28:00.316Z,34.53
2022-10-13T08:30:34.030Z,36.13
2022-10-13T08:33:06.897Z,36.60
2022-10-13T08:35:39.785Z,39.30
2022-10-13T08:38:12.283Z,37.22
2022-10-13T08:40:49.699Z,35.45
2022-10-13T08:43:23.924Z,39.40
2022-10-13T08:45:58.925Z,34.13
2022-10-13T08:48:36.531Z,32.40
2022-10-13T08:51:14.138Z,30.88
2022-10-13T08:53:47.178Z,33.67
2022-10-13T08:56:20.634Z,35.17
2022-10-13T08:58:54.709Z,34.05
2022-10-13T09:01:29.677Z,25.23
2022-10-13T09:04:28.628Z,28.58
2022-10-13T09:07:07.753Z,29.10
2022-10-13T09:09:40.454Z,27.23
2022-10-13T09:12:13.660Z,29.58
2022-10-13T09:14:56.486Z,31.92
2022-10-13T09:17:30.082Z,26.83
2022-10-13T09:20:05.181Z,24.05
2022-10-13T09:22:39.921Z,25.17
2022-10-13T09:25:22.068Z,23.10
2022-10-13T09:27:58.361Z,24.83
2022-10-13T09:30:37.354Z,22.10
2022-10-13T09:33:12.158Z,21.52
2022-10-13T09:35:49.511Z,25.00
2022-10-13T09:38:23.983Z,23.13
2022-10-13T09:41:05.048Z,23.08
2022-10-13T09:43:44.568Z,23.73
2022-10-13T09:46:28.653Z,24.67
2022-10-13T09:49:21.792Z,23.88
2022-10-13T09:51:59.492Z,28.45
2022-10-13T09:54:35.345Z,22.30
2022-10-13T09:57:13.340Z,25.02
2022-10-13T09:59:48.904Z,20.45
2022-10-13T10:02:23.785Z,23.13
2022-10-13T10:05:02.588Z,22.67
2022-10-13T10:07:36.159Z,19.13
2022-10-13T10:10:27.985Z,20.08
2022-10-13T10:13:01.411Z,21.45
2022-10-13T10:15:40.528Z,22.25
2022-10-13T10:18:36.507Z,20.10
2022-10-13T10:21:14.810Z,15.77
2022-10-13T10:23:50.806Z,16.45
2022-10-13T10:26:32.712Z,18.95
2022-10-13T10:29:05.972Z,19.30
2022-10-13T10:31:57.940Z,16.48
2022-10-13T10:34:30.419Z,18.88
2022-10-13T10:37:08.953Z,14.55
2022-10-13T10:40:03.012Z,14.82
2022-10-13T10:42:39.210Z,15.98
2022-10-13T10:45:17.526Z,16.87
2022-10-13T10:47:53.459Z,18.65
2022-10-13T10:50:41.358Z,15.35
2022-10-13T10:53:36.333Z,18.77
2022-10-13T10:56:22.014Z,19.67
2022-10-13T10:59:05.652Z,13.98
2022-10-13T11:01:38.234Z,15.10
2022-10-13T11:04:17.407Z,15.75
2022-10-13T11:06:49.953Z,22.50
2022-10-13T11:09:41.283Z,15.13
2022-10-13T11:12:20.545Z,20.20
2022-10-13T11:14:53.599Z,19.77
2022-10-13T11:17:29.846Z,17.88
2022-10-13T11:20:23.189Z,19.60
2022-10-13T11:22:58.824Z,23.48
2022-10-13T11:25:39.833Z,18.40
2022-10-13T11:28:45.741Z,20.65
2022-10-13T11:31:33.486Z,19.65
2022-10-13T11:34:25.798Z,21.70
2022-10-13T11:37:00.189Z,20.95
2022-10-13T11:39:35.481Z,19.33
2022-10-13T11:42:08.297Z,22.52
2022-10-13T11:44:43.856Z,17.20
2022-10-13T11:47:35.320Z,19.25
2022-10-13T11:50:15.494Z,15.73
2022-10-13T11:52:48.294Z,20.40
2022-10-13T11:55:34.735Z,15.55
2022-10-13T11:58:08.736Z,16.00
2022-10-13T12:00:50.327Z,18.45
2022-10-13T12:03:30.588Z,26.40
2022-10-13T12:06:23.491Z,15.20
2022-10-13T12:08:56.413Z,13.15
2022-10-13T12:11:36.892Z,18.05
2022-10-13T12:14:20.714Z,16.88
2022-10-13T12:19:50.242Z,18.65
2022-10-13T12:22:23.065Z,14.23
2022-10-13T12:25:05.289Z,17.13
2022-10-13T12:27:52.717Z,17.67
2022-10-13T12:30:27.035Z,18.27
2022-10-13T12:33:00.203Z,15.30
2022-10-13T12:35:34.689Z,15.70
2022-10-13T12:38:07.809Z,15.02
2022-10-13T12:40:41.143Z,14.57
2022-10-13T12:43:16.998Z,13.68
2022-10-13T12:45:53.969Z,15.68
2022-10-13T12:48:30.398Z,16.70
2022-10-13T12:51:17.092Z,15.90
2022-10-13T12:53:49.786Z,17.30
2022-10-13T12:56:26.816Z,14.38
2022-10-13T12:58:59.453Z,15.20
2022-10-13T13:01:35.520Z,14.55
2022-10-13T13:04:23.033Z,18.13
2022-10-13T13:07:01.878Z,12.45
2022-10-13T13:09:35.927Z,11.95
2022-10-13T13:12:08.871Z,12.63
2022-10-13T13:14:43.055Z,14.98
2022-10-13T13:17:38.436Z,13.02
2022-10-13T13:20:22.557Z,11.88
2022-10-13T13:22:55.643Z,11.88
2022-10-13T13:25:28.388Z,9.40
2022-10-13T13:28:04.108Z,13.88
2022-10-13T13:30:36.968Z,14.27
2022-10-13T13:36:05.007Z,11.88
2022-10-13T13:38:38.171Z,13.27
2022-10-13T13:41:11.341Z,11.20
2022-10-13T13:43:44.289Z,12.20
2022-10-13T13:46:18.315Z,13.70
2022-10-13T13:48:51.742Z,12.90
2022-10-13T13:51:24.660Z,10.65
2022-10-13T13:53:57.763Z,10.68
2022-10-13T13:56:30.311Z,14.88
2022-10-13T13:59:03.149Z,11.48
2022-10-13T14:01:35.782Z,13.03
2022-10-13T14:04:08.722Z,11.50
2022-10-13T14:06:41.300Z,12.40
2022-10-13T14:09:14.172Z,13.20
2022-10-13T14:11:46.625Z,17.27
2022-10-13T14:14:19.479Z,15.13
2022-10-13T14:16:52.094Z,11.60
2022-10-13T14:19:25.019Z,14.25
2022-10-13T14:21:57.697Z,15.65
2022-10-13T14:24:30.611Z,14.17
2022-10-13T14:27:03.340Z,13.25
2022-10-13T14:29:36.517Z,16.02
2022-10-13T14:32:09.015Z,15.18
2022-10-13T14:34:41.981Z,13.68
2022-10-13T14:37:14.934Z,15.43
2022-10-13T14:43:09.039Z,15.90
2022-10-13T14:45:43.145Z,15.23
2022-10-13T14:48:16.487Z,16.38
2022-10-13T14:50:49.797Z,15.73
2022-10-13T14:53:24.864Z,15.53
2022-10-13T14:55:57.740Z,18.70
2022-10-13T14:58:30.683Z,20.15
2022-10-13T15:01:04.058Z,19.70
2022-10-13T15:03:38.601Z,15.65
2022-10-13T15:06:23.046Z,18.17
2022-10-13T15:08:55.907Z,20.48
2022-10-13T15:11:29.676Z,17.85
2022-10-13T15:14:02.267Z,19.83
2022-10-13T15:16:35.457Z,16.53
2022-10-13T15:19:08.034Z,19.40
2022-10-13T15:21:41.456Z,19.92
2022-10-13T15:24:13.952Z,17.45
2022-10-13T15:26:48.255Z,20.85
2022-10-13T15:29:20.853Z,15.80
2022-10-13T15:32:06.844Z,17.13
2022-10-13T15:34:40.515Z,21.92
2022-10-13T15:37:13.390Z,17.15
2022-10-13T15:39:46.063Z,20.60
2022-10-13T15:42:24.138Z,16.50
2022-10-13T15:45:09.242Z,18.33
2022-10-13T15:47:43.109Z,21.98
2022-10-13T15:50:15.674Z,20.63
2022-10-13T15:52:48.624Z,25.43
2022-10-13T15:55:21.182Z,21.88
2022-10-13T15:57:54.150Z,24.75
2022-10-13T16:00:26.737Z,21.08
2022-10-13T16:02:59.994Z,28.85
2022-10-13T16:05:32.651Z,25.17
2022-10-13T16:08:05.599Z,24.45
2022-10-13T16:10:41.828Z,23.48
2022-10-13T16:13:15.697Z,20.08
2022-10-13T16:15:57.960Z,20.60
2022-10-13T16:18:31.494Z,23.03
2022-10-13T16:21:13.278Z,22.08
2022-10-13T16:23:48.931Z,20.73
2022-10-13T16:26:22.641Z,25.15
2022-10-13T16:28:56.464Z,22.50
2022-10-13T16:31:29.414Z,21.40
2022-10-13T16:34:02.268Z,22.15
2022-10-13T16:36:34.773Z,27.63
2022-10-13T16:39:07.879Z,26.33
2022-10-13T16:41:44.757Z,21.63
2022-10-13T16:44:17.820Z,26.05
2022-10-13T16:46:52.472Z,21.17
2022-10-13T16:49:25.617Z,21.77
2022-10-13T16:51:59.221Z,24.45
2022-10-13T16:54:33.216Z,25.08
2022-10-13T16:57:06.298Z,26.50
2022-10-13T16:59:39.225Z,21.23
2022-10-13T17:02:15.629Z,23.40
2022-10-13T17:04:48.823Z,23.58
2022-10-13T17:07:21.595Z,23.25
2022-10-13T17:09:55.105Z,26.83
2022-10-13T17:12:27.552Z,25.88
2022-10-13T17:15:00.542Z,42.03
2022-10-13T17:17:33.268Z,55.95
2022-10-13T17:20:06.430Z,56.72
2022-10-13T17:22:41.003Z,36.58
2022-10-13T17:25:13.855Z,34.85
2022-10-13T17:27:46.371Z,37.10
2022-10-13T17:30:19.388Z,36.70
2022-10-13T17:32:52.509Z,26.13
2022-10-13T17:35:25.342Z,22.45
2022-10-13T17:37:57.917Z,26.27
2022-10-13T17:40:33.535Z,33.10
2022-10-13T17:43:06.063Z,31.88
2022-10-13T17:45:38.880Z,24.33
2022-10-13T17:48:14.354Z,25.27
2022-10-13T17:50:47.601Z,28.48
2022-10-13T17:53:20.322Z,25.05
2022-10-13T17:55:55.044Z,29.45
2022-10-13T17:58:28.574Z,30.25
2022-10-13T18:01:13.477Z,34.22
2022-10-13T18:03:48.265Z,28.73
2022-10-13T18:06:23.514Z,30.83
2022-10-13T18:08:56.456Z,34.05
2022-10-13T18:11:29.987Z,32.93
2022-10-13T18:14:04.341Z,42.42
2022-10-13T18:16:37.281Z,62.45
2022-10-13T18:19:09.894Z,56.63
2022-10-13T18:21:42.876Z,53.65
2022-10-13T18:24:15.441Z,37.25
2022-10-13T18:26:48.235Z,30.33
2022-10-13T18:29:21.178Z,23.05
2022-10-13T18:31:54.968Z,24.42
2022-10-13T18:34:27.426Z,24.98
2022-10-13T18:37:00.267Z,28.00
2022-10-13T18:39:34.812Z,30.63
2022-10-13T18:42:08.283Z,26.42
2022-10-13T18:44:41.561Z,27.85
2022-10-13T18:47:14.620Z,22.27
2022-10-13T18:49:47.149Z,24.45
2022-10-13T18:52:20.086Z,24.95
2022-10-13T18:54:53.144Z,26.33
2022-10-13T18:57:27.202Z,26.30
2022-10-13T18:59:59.754Z,26.30
2022-10-13T19:02:35.521Z,29.60
2022-10-13T19:05:08.665Z,28.83
2022-10-13T19:07:41.611Z,27.02
2022-10-13T19:10:15.305Z,28.05
2022-10-13T19:12:49.296Z,36.85
2022-10-13T19:15:23.411Z,51.70
2022-10-13T19:17:56.460Z,60.45
2022-10-13T19:20:29.068Z,39.23
2022-10-13T19:23:04.025Z,36.90
2022-10-13T19:25:41.198Z,33.47
2022-10-13T19:28:14.088Z,35.35
2022-10-13T19:30:46.669Z,31.13
2022-10-13T19:33:20.486Z,27.95
2022-10-13T19:35:54.402Z,36.67
2022-10-13T19:38:27.633Z,39.50
2022-10-13T19:41:02.087Z,30.17
2022-10-13T19:43:35.014Z,32.25
2022-10-13T19:46:08.014Z,35.20
2022-10-13T19:48:41.079Z,37.58
2022-10-13T19:51:14.192Z,34.55
2022-10-13T19:53:47.090Z,31.43
2022-10-13T19:56:24.639Z,31.38
2022-10-13T19:58:58.149Z,30.58
2022-10-13T20:01:31.329Z,34.90
2022-10-13T20:04:05.665Z,35.47
2022-10-13T20:06:39.307Z,26.90
2022-10-13T20:09:12.425Z,29.48
2022-10-13T20:11:46.358Z,28.23
2022-10-13T20:14:19.587Z,36.03
2022-10-13T20:16:53.340Z,35.28
2022-10-13T20:19:27.324Z,35.50
2022-10-13T20:22:01.930Z,33.60
2022-10-13T20:24:35.036Z,37.88
2022-10-13T20:27:08.429Z,34.58
2022-10-13T20:29:42.337Z,33.83
2022-10-13T20:32:15.736Z,32.38
2022-10-13T20:34:48.669Z,35.13
2022-10-13T20:37:22.338Z,29.27
2022-10-13T20:39:57.468Z,45.45
2022-10-13T20:42:29.997Z,37.38
2022-10-13T20:45:02.836Z,38.65
2022-10-13T20:47:35.420Z,39.33
2022-10-13T20:50:08.886Z,38.20
2022-10-13T20:52:41.645Z,33.75
2022-10-13T20:55:14.650Z,35.55
2022-10-13T20:57:50.790Z,35.40
2022-10-13T21:00:23.864Z,36.83
2022-10-13T21:02:59.934Z,36.85
2022-10-13T21:05:35.463Z,34.97
2022-10-13T21:08:08.125Z,31.40
2022-10-13T21:10:41.158Z,33.03
2022-10-13T21:13:15.790Z,33.38
2022-10-13T21:15:49.142Z,32.33
2022-10-13T21:18:27.348Z,32.40
2022-10-13T21:21:07.009Z,38.50
2022-10-13T21:23:40.477Z,35.38
2022-10-13T21:26:20.392Z,37.45
2022-10-13T21:28:54.227Z,34.88
2022-10-13T21:31:27.989Z,45.38
2022-10-13T21:34:02.109Z,41.10
2022-10-13T21:36:35.116Z,41.80
2022-10-13T21:39:08.230Z,40.30
2022-10-13T21:41:42.133Z,39.72
2022-10-13T21:44:15.223Z,39.97
2022-10-13T21:46:48.451Z,36.22
2022-10-13T21:49:21.331Z,36.85
2022-10-13T21:51:54.188Z,36.00
2022-10-13T21:54:26.668Z,38.95
2022-10-13T21:56:59.604Z,36.47
2022-10-13T21:59:32.437Z,34.08
2022-10-13T22:02:05.247Z,31.35
2022-10-13T22:04:37.766Z,35.25
2022-10-13T22:07:10.635Z,34.75
2022-10-13T22:09:43.422Z,36.97
2022-10-13T22:12:17.383Z,32.83
2022-10-13T22:14:50.115Z,33.67
2022-10-13T22:17:26.085Z,36.28
2022-10-13T22:19:58.682Z,36.33
2022-10-13T22:22:31.476Z,35.43
2022-10-13T22:25:04.212Z,40.45
2022-10-13T22:27:38.393Z,37.58
2022-10-13T22:30:11.224Z,30.30
2022-10-13T22:32:45.390Z,38.50
2022-10-13T22:35:17.902Z,41.60
2022-10-13T22:37:50.909Z,34.60
2022-10-13T22:40:25.754Z,33.28
2022-10-13T22:42:58.691Z,37.75
2022-10-13T22:45:33.405Z,38.33
2022-10-13T22:48:06.413Z,35.78
2022-10-13T22:50:38.927Z,38.33
2022-10-13T22:53:11.984Z,32.63
2022-10-13T22:55:44.848Z,35.42
2022-10-13T22:58:17.687Z,38.45
2022-10-13T23:00:51.892Z,43.63
2022-10-13T23:03:24.834Z,45.75
2022-10-13T23:05:59.428Z,50.42
2022-10-13T23:08:32.851Z,49.30
2022-10-13T23:11:05.420Z,44.13
2022-10-13T23:13:38.630Z,58.10
2022-10-13T23:16:14.595Z,61.92
2022-10-13T23:18:51.324Z,57.08
2022-10-13T23:21:30.678Z,49.70
2022-10-13T23:24:05.299Z,43.78
2022-10-13T23:26:38.118Z,38.40
2022-10-13T23:29:11.489Z,46.05
2022-10-13T23:31:44.102Z,47.25
2022-10-13T23:34:17.177Z,42.90
2022-10-13T23:36:50.113Z,39.47
2022-10-13T23:39:24.439Z,37.17
2022-10-13T23:41:57.312Z,39.47
2022-10-13T23:44:30.587Z,33.70
2022-10-13T23:47:03.148Z,38.53
2022-10-13T23:49:36.573Z,41.20
2022-10-13T23:52:11.117Z,35.95
2022-10-13T23:54:44.100Z,39.63
2022-10-13T23:57:17.025Z,33.72
2022-10-13T23:59:49.968Z,33.88
